Time;durP1;ratioP1;P1;durP2;ratioP2;P2;SDS_P1;SDS_P2;PMS_P1;PMS_P2;Temp;Humidity;BMP_temperature;BMP_pressure;BME280_temperature;BME280_humidity;BME280_pressure;Samples;Min_cycle;Max_cycle;Signal;HPM_P1;HPM_P2
2022/04/04 00:00:51;;;;;;;11.33;7.30;;;6.30;93.00;;;;;;6246563;23;20462;-82
2022/04/04 00:03:17;;;;;;;5.60;4.33;;;6.50;92.80;;;;;;6245037;23;20193;-82
2022/04/04 00:05:42;;;;;;;10.30;6.77;;;6.50;92.50;;;;;;6219187;23;20150;-83
2022/04/04 00:08:08;;;;;;;9.30;7.00;;;6.40;92.80;;;;;;6219475;23;20596;-83
2022/04/04 00:10:34;;;;;;;6.33;5.10;;;6.30;93.00;;;;;;6219018;23;20233;-84
2022/04/04 00:13:00;;;;;;;8.03;4.47;;;6.20;93.10;;;;;;6218860;23;20595;-84
2022/04/04 00:15:27;;;;;;;8.77;5.93;;;5.90;93.70;;;;;;6218438;23;20147;-82
2022/04/04 00:17:55;;;;;;;7.40;4.57;;;5.80;94.30;;;;;;6218754;23;20147;-85
2022/04/04 00:20:22;;;;;;;10.07;4.30;;;5.90;94.40;;;;;;6218879;23;20166;-83
2022/04/04 00:22:47;;;;;;;7.43;4.80;;;5.90;94.20;;;;;;6219729;23;20182;-83
2022/04/04 00:25:13;;;;;;;8.23;5.73;;;5.80;94.40;;;;;;6246562;23;20143;-82
2022/04/04 00:27:38;;;;;;;7.17;4.53;;;5.90;94.40;;;;;;6219578;23;20155;-82
2022/04/04 00:30:04;;;;;;;8.30;4.77;;;6.00;94.10;;;;;;6219592;23;20575;-84
2022/04/04 00:32:30;;;;;;;10.03;5.37;;;6.20;93.90;;;;;;6219285;23;20169;-83
2022/04/04 00:34:56;;;;;;;8.67;5.90;;;6.00;93.90;;;;;;6219775;23;20473;-83
2022/04/04 00:37:21;;;;;;;7.40;4.70;;;5.90;94.10;;;;;;6219364;23;20147;-83
2022/04/04 00:39:47;;;;;;;8.70;5.03;;;5.90;94.40;;;;;;6219604;23;20160;-83
2022/04/04 00:42:16;;;;;;;9.23;7.33;;;5.80;94.40;;;;;;6219574;23;20171;-83
2022/04/04 00:44:42;;;;;;;13.43;6.90;;;5.80;94.40;;;;;;6245745;23;20254;-82
2022/04/04 00:47:08;;;;;;;9.37;6.60;;;5.80;94.50;;;;;;6245951;23;20143;-82
2022/04/04 00:49:34;;;;;;;9.23;5.17;;;5.80;94.60;;;;;;6246154;23;20638;-83
2022/04/04 00:51:59;;;;;;;8.10;4.73;;;5.80;94.40;;;;;;6219152;23;20143;-82
2022/04/04 00:54:26;;;;;;;8.13;4.97;;;5.90;94.20;;;;;;6219366;23;20612;-83
2022/04/04 00:56:52;;;;;;;9.73;7.10;;;5.80;94.50;;;;;;6244559;23;20148;-82
2022/04/04 00:59:20;;;;;;;13.17;9.33;;;5.70;94.60;;;;;;6219363;23;20154;-83
2022/04/04 01:01:46;;;;;;;11.60;7.87;;;5.60;94.70;;;;;;6218681;23;20229;-82
2022/04/04 01:04:13;;;;;;;11.67;6.40;;;5.60;94.70;;;;;;6219160;23;20213;-82
2022/04/04 01:06:39;;;;;;;9.77;5.40;;;5.50;95.00;;;;;;6218896;23;20151;-82
2022/04/04 01:09:05;;;;;;;6.77;5.00;;;5.40;95.20;;;;;;6245816;23;20155;-83
2022/04/04 01:11:31;;;;;;;10.23;6.03;;;5.30;95.70;;;;;;6218957;23;20577;-83
2022/04/04 01:13:57;;;;;;;9.43;6.13;;;5.20;95.70;;;;;;6219081;23;20170;-83
2022/04/04 01:16:23;;;;;;;10.60;5.07;;;5.20;95.70;;;;;;6218727;23;20174;-83
2022/04/04 01:18:49;;;;;;;8.67;5.33;;;5.30;95.90;;;;;;6219392;23;20150;-83
2022/04/04 01:21:19;;;;;;;10.07;5.17;;;5.30;95.50;;;;;;6245790;23;20575;-83
2022/04/04 01:23:49;;;;;;;10.33;5.60;;;5.30;95.40;;;;;;6218947;23;20216;-83
2022/04/04 01:26:14;;;;;;;9.83;5.13;;;5.30;95.40;;;;;;6219001;23;20182;-83
2022/04/04 01:28:40;;;;;;;8.50;5.50;;;5.30;95.30;;;;;;6218933;23;20169;-83
2022/04/04 01:31:07;;;;;;;7.70;4.70;;;5.30;95.30;;;;;;6218675;23;20556;-83
2022/04/04 01:33:34;;;;;;;8.90;5.03;;;5.30;95.20;;;;;;6219195;23;20174;-82
2022/04/04 01:35:59;;;;;;;9.13;5.70;;;5.30;95.10;;;;;;6218887;23;20152;-82
2022/04/04 01:38:26;;;;;;;8.87;4.90;;;5.30;95.20;;;;;;6219007;23;20179;-82
2022/04/04 01:40:52;;;;;;;8.80;4.57;;;5.30;94.90;;;;;;6218765;23;20147;-82
2022/04/04 01:43:18;;;;;;;6.20;4.63;;;5.30;94.80;;;;;;6218264;23;20186;-82
2022/04/04 01:48:28;;;;;;;8.67;5.27;;;5.30;95.00;;;;;;6245816;23;20514;-83
2022/04/04 01:50:54;;;;;;;6.97;4.93;;;5.30;95.00;;;;;;6218992;23;20144;-83
2022/04/04 01:53:25;;;;;;;10.93;5.60;;;5.20;95.40;;;;;;6218532;23;20167;-82
2022/04/04 01:55:54;;;;;;;8.37;5.60;;;5.20;95.50;;;;;;6245266;23;20503;-82
2022/04/04 01:58:20;;;;;;;6.90;5.33;;;5.10;95.70;;;;;;6218382;23;20572;-83
2022/04/04 02:00:46;;;;;;;10.40;5.30;;;5.20;95.80;;;;;;6218368;23;20150;-83
2022/04/04 02:03:12;;;;;;;9.63;5.37;;;5.30;95.70;;;;;;6218598;23;20179;-83
2022/04/04 02:05:38;;;;;;;6.80;4.80;;;5.30;95.60;;;;;;6218865;23;20221;-83
2022/04/04 02:08:04;;;;;;;6.77;5.37;;;5.40;95.50;;;;;;6218641;23;20221;-83
2022/04/04 02:10:30;;;;;;;8.23;5.40;;;5.20;95.70;;;;;;6218269;23;20151;-83
2022/04/04 02:12:55;;;;;;;12.63;5.63;;;5.20;95.90;;;;;;6218538;23;20482;-83
2022/04/04 02:15:21;;;;;;;6.73;5.53;;;5.10;96.10;;;;;;6218631;23;20147;-83
2022/04/04 02:17:47;;;;;;;13.40;5.93;;;5.10;96.20;;;;;;6218483;23;20158;-82
2022/04/04 02:20:14;;;;;;;8.73;6.13;;;5.10;96.50;;;;;;6218863;23;20167;-83
2022/04/04 02:22:39;;;;;;;11.43;6.10;;;5.10;96.70;;;;;;6218313;23;20688;-83
2022/04/04 02:25:05;;;;;;;9.43;5.67;;;5.10;96.60;;;;;;6218607;23;20175;-83
2022/04/04 02:27:31;;;;;;;11.57;6.03;;;5.10;96.70;;;;;;6218316;23;20173;-83
2022/04/04 02:29:57;;;;;;;10.70;6.13;;;5.10;96.60;;;;;;6218542;23;20527;-83
2022/04/04 02:32:23;;;;;;;9.97;6.73;;;5.00;96.80;;;;;;6218603;23;20171;-84
2022/04/04 02:34:49;;;;;;;12.77;7.23;;;5.00;97.20;;;;;;6243696;23;20151;-83
2022/04/04 02:37:15;;;;;;;10.73;7.53;;;5.00;97.20;;;;;;6245186;23;20142;-83
2022/04/04 02:39:41;;;;;;;15.80;8.10;;;4.90;97.30;;;;;;6245512;23;20151;-82
2022/04/04 02:42:07;;;;;;;17.23;7.97;;;4.90;97.60;;;;;;6218474;23;20606;-83
2022/04/04 02:44:34;;;;;;;14.10;8.73;;;4.70;98.20;;;;;;6217985;23;20225;-83
2022/04/04 02:46:59;;;;;;;11.60;7.63;;;4.70;98.60;;;;;;6218468;23;20198;-83
2022/04/04 02:49:25;;;;;;;14.97;7.63;;;4.80;98.40;;;;;;6218511;23;20452;-83
2022/04/04 02:51:52;;;;;;;13.90;8.10;;;4.80;98.50;;;;;;6218482;23;20178;-83
2022/04/04 02:54:17;;;;;;;15.83;8.30;;;4.90;98.40;;;;;;6218152;23;20517;-92
2022/04/04 02:56:43;;;;;;;20.93;9.30;;;4.90;98.50;;;;;;6218716;23;20143;-91
2022/04/04 02:59:09;;;;;;;14.03;7.97;;;4.80;98.60;;;;;;6243082;23;20201;-83
2022/04/04 03:01:35;;;;;;;15.53;8.57;;;4.80;99.00;;;;;;6245215;23;20219;-83
2022/04/04 03:04:02;;;;;;;16.30;8.50;;;4.80;99.20;;;;;;6244932;23;20199;-82
2022/04/04 03:06:28;;;;;;;14.00;7.87;;;4.90;99.30;;;;;;6218655;23;20227;-83
2022/04/04 03:08:54;;;;;;;14.07;8.80;;;4.90;99.20;;;;;;6219286;23;20178;-83
2022/04/04 03:11:20;;;;;;;14.77;8.40;;;4.80;99.30;;;;;;6220487;23;20150;-83
2022/04/04 03:13:46;;;;;;;13.30;8.20;;;4.80;99.70;;;;;;6246659;23;20163;-83
2022/04/04 03:16:13;;;;;;;15.83;9.27;;;4.70;99.90;;;;;;6220690;23;20194;-82
2022/04/04 03:18:39;;;;;;;16.93;9.23;;;4.70;99.90;;;;;;6247111;23;20139;-85
2022/04/04 03:21:06;;;;;;;12.43;8.13;;;4.70;99.90;;;;;;6220333;23;20139;-83
2022/04/04 03:23:33;;;;;;;14.30;8.73;;;4.80;99.90;;;;;;6219807;23;20183;-82
2022/04/04 03:25:59;;;;;;;17.27;8.77;;;4.90;99.90;;;;;;6247186;23;20132;-83
2022/04/04 03:28:25;;;;;;;14.20;9.27;;;4.90;99.90;;;;;;6219540;23;20175;-85
2022/04/04 03:30:51;;;;;;;14.00;8.63;;;5.00;99.80;;;;;;6220224;23;20143;-83
2022/04/04 03:33:17;;;;;;;16.33;8.60;;;5.00;99.90;;;;;;6220272;23;20599;-83
2022/04/04 03:35:43;;;;;;;15.37;8.23;;;4.80;99.90;;;;;;6246930;23;20139;-83
2022/04/04 03:38:11;;;;;;;14.93;8.47;;;4.60;99.90;;;;;;6246967;23;20158;-83
2022/04/04 03:40:38;;;;;;;11.30;7.67;;;4.60;99.90;;;;;;6219624;23;20151;-84
2022/04/04 03:43:04;;;;;;;14.20;7.87;;;4.60;99.90;;;;;;6219831;23;20213;-83
2022/04/04 03:45:30;;;;;;;13.33;8.00;;;4.60;99.90;;;;;;6220120;23;20178;-83
2022/04/04 03:47:57;;;;;;;12.07;7.60;;;4.60;99.90;;;;;;6219931;23;20151;-82
2022/04/04 03:50:24;;;;;;;14.70;7.83;;;4.40;99.90;;;;;;6246738;23;20135;-83
2022/04/04 03:52:52;;;;;;;14.57;8.63;;;4.40;99.90;;;;;;6219897;23;20140;-83
2022/04/04 03:55:22;;;;;;;12.83;7.60;;;4.30;99.90;;;;;;6246606;23;20140;-83
2022/04/04 03:57:48;;;;;;;13.40;8.50;;;4.40;99.90;;;;;;6220120;23;20234;-82
2022/04/04 04:00:14;;;;;;;15.17;7.83;;;4.50;99.90;;;;;;6220129;23;20233;-83
2022/04/04 04:02:40;;;;;;;14.37;8.30;;;4.50;99.90;;;;;;6245013;23;20217;-82
2022/04/04 04:05:07;;;;;;;9.90;7.93;;;4.50;99.90;;;;;;6245050;23;20149;-84
2022/04/04 04:07:33;;;;;;;13.80;7.40;;;4.50;99.90;;;;;;6246756;23;20165;-85
2022/04/04 04:09:59;;;;;;;9.47;7.20;;;4.50;99.90;;;;;;6246036;23;20139;-83
2022/04/04 04:12:25;;;;;;;10.13;8.03;;;4.40;99.90;;;;;;6219835;23;20158;-83
2022/04/04 04:14:52;;;;;;;13.67;7.73;;;4.40;99.90;;;;;;6219714;23;20194;-83
2022/04/04 04:17:19;;;;;;;11.63;8.17;;;4.30;99.90;;;;;;6220092;23;20489;-82
2022/04/04 04:22:30;;;;;;;15.10;8.13;;;4.30;99.90;;;;;;6246608;23;20193;-83
2022/04/04 04:24:58;;;;;;;12.43;7.67;;;4.20;99.90;;;;;;6219456;23;20151;-82
2022/04/04 04:27:23;;;;;;;9.57;7.10;;;4.10;99.90;;;;;;6246677;23;20131;-82
2022/04/04 04:29:49;;;;;;;14.60;8.73;;;4.30;99.90;;;;;;6246393;23;20167;-82
2022/04/04 04:32:15;;;;;;;11.67;8.23;;;4.30;99.90;;;;;;6246651;23;20465;-83
2022/04/04 04:34:46;;;;;;;12.20;7.13;;;4.30;99.90;;;;;;6219627;23;20151;-85
2022/04/04 04:37:12;;;;;;;13.93;7.80;;;4.40;99.90;;;;;;6220230;23;20579;-83
2022/04/04 04:39:38;;;;;;;13.00;7.23;;;4.40;99.90;;;;;;6219041;23;20242;-83
2022/04/04 04:42:05;;;;;;;14.20;7.87;;;4.40;99.90;;;;;;6246216;23;20163;-83
2022/04/04 04:44:31;;;;;;;12.27;7.33;;;4.30;99.90;;;;;;6219551;23;20179;-82
2022/04/04 04:46:57;;;;;;;13.20;8.07;;;4.30;99.90;;;;;;6218957;23;20226;-83
2022/04/04 04:49:24;;;;;;;12.40;8.13;;;4.40;99.90;;;;;;6219492;23;20143;-82
2022/04/04 04:51:49;;;;;;;10.93;7.90;;;4.40;99.90;;;;;;6219179;23;20146;-82
2022/04/04 04:54:16;;;;;;;9.60;7.57;;;4.40;99.90;;;;;;6245794;23;20167;-83
2022/04/04 04:56:43;;;;;;;12.70;7.93;;;4.50;99.90;;;;;;6219255;23;20151;-83
2022/04/04 04:59:09;;;;;;;15.17;8.10;;;4.40;99.90;;;;;;6219342;23;20143;-83
2022/04/04 05:01:35;;;;;;;12.07;7.40;;;4.50;99.90;;;;;;6219357;23;20159;-83
2022/04/04 05:04:02;;;;;;;13.97;8.37;;;4.40;99.90;;;;;;6246025;23;20175;-82
2022/04/04 05:06:27;;;;;;;11.57;8.70;;;4.40;99.90;;;;;;6219453;23;20147;-83
2022/04/04 05:08:55;;;;;;;13.07;7.80;;;4.40;99.90;;;;;;6219290;23;20159;-82
2022/04/04 05:11:21;;;;;;;15.60;8.00;;;4.50;99.90;;;;;;6219541;23;20174;-82
2022/04/04 05:13:47;;;;;;;10.93;7.73;;;4.60;99.90;;;;;;6219331;23;20175;-83
2022/04/04 05:16:14;;;;;;;16.37;9.20;;;4.70;99.90;;;;;;6219524;23;20226;-83
2022/04/04 05:18:43;;;;;;;14.77;8.37;;;4.70;99.90;;;;;;6219550;23;20153;-81
2022/04/04 05:21:10;;;;;;;11.17;7.50;;;4.70;99.90;;;;;;6219362;23;20580;-83
2022/04/04 05:23:38;;;;;;;14.13;8.43;;;4.70;99.90;;;;;;6218903;23;20171;-82
2022/04/04 05:26:05;;;;;;;11.67;7.97;;;4.80;99.90;;;;;;6219113;23;20171;-83
2022/04/04 05:28:31;;;;;;;13.07;8.03;;;4.80;99.90;;;;;;6219502;23;20198;-82
2022/04/04 05:30:58;;;;;;;16.73;9.33;;;4.80;99.90;;;;;;6218724;23;20162;-82
2022/04/04 05:33:26;;;;;;;13.20;7.67;;;4.60;99.90;;;;;;6219299;23;20557;-82
2022/04/04 05:35:52;;;;;;;14.17;10.60;;;4.60;99.90;;;;;;6219349;23;20147;-82
2022/04/04 05:38:18;;;;;;;12.67;8.77;;;4.70;99.90;;;;;;6218930;23;20159;-83
2022/04/04 05:40:44;;;;;;;11.70;7.87;;;4.80;99.90;;;;;;6219183;23;20174;-82
2022/04/04 05:43:09;;;;;;;12.10;8.97;;;4.80;99.90;;;;;;6244153;23;20175;-81
2022/04/04 05:45:36;;;;;;;11.40;7.57;;;4.80;99.90;;;;;;6219238;23;20568;-83
2022/04/04 05:48:03;;;;;;;10.03;7.20;;;4.80;99.90;;;;;;6219080;23;20154;-83
2022/04/04 05:50:29;;;;;;;12.70;8.13;;;4.80;99.90;;;;;;6219410;23;20147;-83
2022/04/04 05:52:56;;;;;;;11.77;7.83;;;4.90;99.90;;;;;;6245878;23;20210;-84
2022/04/04 05:55:21;;;;;;;10.07;6.83;;;5.10;99.90;;;;;;6245982;23;20217;-82
2022/04/04 05:57:47;;;;;;;12.83;7.67;;;5.00;99.90;;;;;;6217972;23;20513;-81
2022/04/04 06:00:14;;;;;;;10.47;7.33;;;5.10;99.90;;;;;;6218653;23;20167;-82
2022/04/04 06:02:41;;;;;;;11.93;7.23;;;5.10;99.90;;;;;;6218568;23;20201;-82
2022/04/04 06:05:08;;;;;;;9.60;7.17;;;5.10;99.90;;;;;;6219052;23;20233;-82
2022/04/04 06:07:38;;;;;;;11.27;7.20;;;5.10;99.90;;;;;;6217446;23;20147;-82
2022/04/04 06:10:06;;;;;;;13.77;7.40;;;5.20;99.90;;;;;;6216902;23;20187;-82
2022/04/04 06:12:34;;;;;;;11.67;7.23;;;5.20;99.90;;;;;;6242028;23;20143;-83
2022/04/04 06:15:00;;;;;;;11.27;7.77;;;5.30;99.90;;;;;;6217317;23;20594;-81
2022/04/04 06:17:25;;;;;;;12.80;7.70;;;5.30;99.90;;;;;;6217604;23;20223;-81
2022/04/04 06:19:51;;;;;;;15.30;8.00;;;5.30;99.90;;;;;;6244654;23;20165;-82
2022/04/04 06:22:16;;;;;;;12.50;7.83;;;5.40;99.90;;;;;;6243502;23;20261;-81
2022/04/04 06:24:42;;;;;;;13.07;8.57;;;5.60;99.90;;;;;;6245198;23;20636;-81
2022/04/04 06:27:07;;;;;;;14.07;8.10;;;5.60;99.90;;;;;;6218402;23;20148;-82
2022/04/04 06:29:33;;;;;;;14.13;8.20;;;5.60;99.90;;;;;;6218361;23;20487;-82
2022/04/04 06:31:59;;;;;;;14.07;7.80;;;5.60;99.90;;;;;;6218173;23;20151;-82
2022/04/04 06:34:25;;;;;;;11.57;7.77;;;5.50;99.90;;;;;;6218473;23;20147;-82
2022/04/04 06:36:51;;;;;;;13.47;7.87;;;5.50;99.90;;;;;;6218036;23;20140;-82
2022/04/04 06:39:17;;;;;;;15.57;9.00;;;5.60;99.90;;;;;;6217931;23;20275;-82
2022/04/04 06:41:45;;;;;;;13.57;8.53;;;5.60;99.90;;;;;;6218846;23;20193;-82
2022/04/04 06:44:11;;;;;;;13.47;8.57;;;5.60;99.90;;;;;;6219517;23;20236;-82
2022/04/04 06:46:37;;;;;;;12.80;8.37;;;5.70;99.90;;;;;;6245365;23;20345;-94
2022/04/04 06:49:07;;;;;;;15.57;8.50;;;5.70;99.90;;;;;;6226140;23;20159;-95
2022/04/04 06:51:34;;;;;;;12.73;8.80;;;5.70;99.90;;;;;;6221806;23;20154;-95
2022/04/04 06:54:03;;;;;;;14.07;8.83;;;5.70;99.90;;;;;;6227275;23;20151;-96
2022/04/04 06:56:29;;;;;;;15.67;7.87;;;5.80;99.90;;;;;;6235494;23;20148;-94
2022/04/04 06:58:55;;;;;;;15.77;8.97;;;5.80;99.90;;;;;;6228146;23;20576;-95
2022/04/04 07:01:21;;;;;;;15.23;8.00;;;5.70;99.90;;;;;;6222147;23;20155;-94
2022/04/04 07:03:46;;;;;;;16.17;8.80;;;5.80;99.90;;;;;;6221657;23;20182;-93
2022/04/04 07:06:12;;;;;;;13.50;8.87;;;5.90;99.90;;;;;;6222044;23;20175;-93
2022/04/04 07:08:38;;;;;;;12.77;8.33;;;5.90;99.90;;;;;;6221925;23;20155;-93
2022/04/04 07:11:05;;;;;;;14.63;8.63;;;6.00;99.90;;;;;;6221402;23;20144;-94
2022/04/04 07:13:34;;;;;;;14.13;8.77;;;6.00;99.90;;;;;;6221408;23;20622;-93
2022/04/04 07:16:00;;;;;;;14.90;8.23;;;6.10;99.90;;;;;;6222364;23;20273;-94
2022/04/04 07:18:26;;;;;;;15.40;8.60;;;6.10;99.90;;;;;;6221669;23;20262;-96
2022/04/04 07:20:51;;;;;;;11.17;8.10;;;6.10;99.90;;;;;;6221713;23;20576;-94
2022/04/04 07:23:17;;;;;;;12.63;8.30;;;6.20;99.90;;;;;;6221842;23;20215;-95
2022/04/04 07:25:43;;;;;;;11.17;7.70;;;6.30;99.90;;;;;;6222023;23;20190;-94
2022/04/04 07:28:08;;;;;;;14.57;9.40;;;6.40;99.90;;;;;;6222124;23;20675;-93
2022/04/04 07:30:34;;;;;;;15.63;8.43;;;6.50;99.90;;;;;;6222022;23;20209;-93
2022/04/04 07:33:03;;;;;;;12.70;7.37;;;6.60;99.90;;;;;;6223570;23;20550;-92
2022/04/04 07:35:29;;;;;;;14.63;9.33;;;6.70;99.90;;;;;;6221719;23;20143;-94
2022/04/04 07:37:55;;;;;;;14.93;8.53;;;6.90;99.90;;;;;;6222339;23;20224;-95
2022/04/04 07:40:21;;;;;;;11.27;7.60;;;7.00;99.90;;;;;;6248371;23;20174;-92
2022/04/04 07:42:48;;;;;;;16.10;8.20;;;7.20;99.90;;;;;;6221317;23;20475;-92
2022/04/04 07:45:15;;;;;;;12.03;7.43;;;7.30;99.90;;;;;;6221371;23;20151;-91
2022/04/04 07:47:42;;;;;;;12.10;7.50;;;7.40;99.90;;;;;;6221124;23;20144;-92
2022/04/04 07:50:11;;;;;;;13.10;7.97;;;7.30;99.90;;;;;;6221169;23;20234;-92
2022/04/04 07:52:37;;;;;;;17.37;8.53;;;7.50;99.90;;;;;;6221174;23;20140;-91
2022/04/04 07:55:03;;;;;;;11.60;7.50;;;7.70;99.90;;;;;;6221228;23;20167;-92
2022/04/04 07:57:30;;;;;;;18.33;8.77;;;7.60;99.90;;;;;;6221628;23;20565;-91
2022/04/04 07:59:56;;;;;;;17.27;7.97;;;7.60;99.90;;;;;;6220894;23;20515;-90
2022/04/04 08:02:22;;;;;;;11.93;7.50;;;7.60;99.90;;;;;;6221119;23;20167;-92
2022/04/04 08:04:47;;;;;;;12.23;7.33;;;7.60;99.90;;;;;;6221310;23;20242;-92
2022/04/04 08:07:13;;;;;;;11.53;7.40;;;7.50;99.90;;;;;;6221636;23;20151;-92
2022/04/04 08:09:40;;;;;;;14.83;7.90;;;7.50;99.90;;;;;;6220801;23;20416;-92
2022/04/04 08:12:06;;;;;;;12.43;8.10;;;7.60;99.90;;;;;;6221450;23;20136;-92
2022/04/04 08:14:32;;;;;;;14.60;7.53;;;7.80;99.90;;;;;;6221125;23;20159;-91
2022/04/04 08:17:00;;;;;;;11.70;8.00;;;7.70;99.90;;;;;;6220972;23;20201;-92
2022/04/04 08:19:25;;;;;;;15.93;8.60;;;7.70;99.90;;;;;;6220989;23;20172;-92
2022/04/04 08:21:51;;;;;;;14.17;9.00;;;7.80;99.90;;;;;;6221124;23;20454;-92
2022/04/04 08:24:17;;;;;;;12.13;8.60;;;7.90;99.90;;;;;;6220918;23;20272;-92
2022/04/04 08:26:42;;;;;;;13.43;8.70;;;7.90;99.90;;;;;;6221035;23;20190;-92
2022/04/04 08:29:09;;;;;;;15.33;8.93;;;7.90;99.90;;;;;;6221029;23;20189;-93
2022/04/04 08:31:35;;;;;;;16.73;10.00;;;7.90;99.90;;;;;;6220813;23;20144;-92
2022/04/04 08:34:01;;;;;;;13.67;10.47;;;7.90;99.90;;;;;;6221157;23;20144;-92
2022/04/04 08:36:27;;;;;;;13.83;9.83;;;7.80;99.90;;;;;;6220784;23;20185;-91
2022/04/04 08:38:53;;;;;;;13.77;10.23;;;7.50;99.90;;;;;;6220959;23;20163;-92
2022/04/04 08:41:21;;;;;;;14.17;9.40;;;7.50;99.90;;;;;;6221222;23;20170;-92
2022/04/04 08:43:49;;;;;;;16.63;10.70;;;7.20;99.90;;;;;;6221287;23;20175;-93
2022/04/04 08:46:16;;;;;;;16.93;11.53;;;6.90;99.90;;;;;;6220855;23;20167;-94
2022/04/04 08:48:42;;;;;;;19.33;11.20;;;6.70;99.90;;;;;;6221054;23;20201;-94
2022/04/04 08:51:08;;;;;;;16.33;11.50;;;6.70;99.90;;;;;;6220774;23;20248;-93
2022/04/04 08:53:38;;;;;;;20.87;13.57;;;6.80;99.90;;;;;;6220780;23;20246;-93
2022/04/04 08:56:05;;;;;;;23.57;11.43;;;6.80;99.90;;;;;;6220757;23;20136;-93
2022/04/04 08:58:31;;;;;;;19.47;11.37;;;6.70;99.90;;;;;;6221112;23;20140;-91
2022/04/04 09:00:57;;;;;;;23.90;12.73;;;6.70;99.90;;;;;;6220487;23;20175;-93
2022/04/04 09:03:29;;;;;;;24.03;13.73;;;6.60;99.90;;;;;;6220777;23;20203;-93
2022/04/04 09:06:00;;;;;;;23.83;12.87;;;6.60;99.90;;;;;;6220296;23;20201;-92
2022/04/04 09:08:31;;;;;;;18.47;12.67;;;6.70;99.90;;;;;;6220964;23;20154;-93
2022/04/04 09:11:01;;;;;;;16.20;11.50;;;6.70;99.90;;;;;;6220612;23;20151;-92
2022/04/04 09:13:28;;;;;;;19.07;12.27;;;6.60;99.90;;;;;;6220598;23;20163;-93
2022/04/04 09:16:05;;;;;;;21.13;13.30;;;6.50;99.90;;;;;;6221045;23;20152;-93
2022/04/04 09:18:39;;;;;;;21.70;12.40;;;6.50;99.90;;;;;;6220751;23;20139;-93
2022/04/04 09:21:07;;;;;;;19.33;13.10;;;6.60;99.90;;;;;;6220214;23;20229;-92
2022/04/04 09:23:42;;;;;;;19.17;12.90;;;6.70;99.90;;;;;;6220164;23;20175;-92
2022/04/04 09:26:32;;;;;;;21.60;14.93;;;6.80;99.90;;;;;;6220825;23;20229;-92
2022/04/04 09:29:05;;;;;;;20.70;13.83;;;6.80;99.90;;;;;;6220278;23;20148;-91
2022/04/04 09:31:31;;;;;;;18.97;14.30;;;6.70;99.90;;;;;;6220987;23;20151;-92
2022/04/04 09:34:03;;;;;;;20.07;13.50;;;6.70;99.90;;;;;;6220745;23;20153;-93
2022/04/04 09:36:30;;;;;;;21.10;14.83;;;6.50;99.90;;;;;;6221471;23;20147;-93
2022/04/04 09:39:08;;;;;;;20.33;14.13;;;6.50;99.90;;;;;;6222707;23;20167;-92
2022/04/04 09:41:34;;;;;;;21.43;14.63;;;6.30;99.90;;;;;;6224222;23;20601;-91
2022/04/04 09:44:02;;;;;;;20.23;13.87;;;6.30;99.90;;;;;;6221394;23;20202;-91
2022/04/04 09:46:31;;;;;;;21.97;14.83;;;6.30;99.90;;;;;;6221053;23;20143;-91
2022/04/04 09:49:16;;;;;;;16.70;12.63;;;6.30;99.90;;;;;;6222458;23;20440;-90
2022/04/04 09:51:50;;;;;;;17.93;13.30;;;6.20;99.90;;;;;;6222104;23;20163;-90
2022/04/04 09:54:23;;;;;;;21.83;13.80;;;6.00;99.90;;;;;;6220556;23;20182;-90
2022/04/04 09:56:56;;;;;;;22.13;15.53;;;6.00;99.90;;;;;;6221072;23;20143;-92
2022/04/04 09:59:22;;;;;;;25.43;17.07;;;6.30;99.90;;;;;;6219553;23;20614;-92
2022/04/04 10:01:48;;;;;;;21.53;15.03;;;6.50;99.90;;;;;;6219860;23;20147;-92
2022/04/04 10:04:14;;;;;;;23.03;15.43;;;6.50;99.90;;;;;;6219659;23;20253;-90
2022/04/04 10:06:43;;;;;;;24.33;14.23;;;6.60;99.90;;;;;;6220668;23;20205;-92
2022/04/04 10:09:09;;;;;;;20.60;14.57;;;6.70;99.90;;;;;;6220510;23;20166;-92
2022/04/04 10:11:38;;;;;;;14.97;12.53;;;6.80;99.90;;;;;;6222895;23;20476;-92
2022/04/04 10:14:04;;;;;;;18.50;13.27;;;6.80;99.90;;;;;;6224024;23;20163;-92
2022/04/04 10:16:32;;;;;;;18.77;13.00;;;6.90;99.90;;;;;;6222253;23;20150;-92
2022/04/04 10:18:58;;;;;;;18.43;13.30;;;6.90;99.90;;;;;;6219282;23;20147;-92
2022/04/04 10:21:26;;;;;;;18.63;12.53;;;7.00;99.90;;;;;;6219660;23;20260;-93
2022/04/04 10:23:59;;;;;;;20.30;13.80;;;7.10;99.90;;;;;;6219636;23;20175;-92
2022/04/04 10:26:33;;;;;;;16.07;11.07;;;6.90;99.90;;;;;;6219683;23;20146;-92
2022/04/04 10:29:14;;;;;;;15.43;10.77;;;6.80;99.90;;;;;;6219275;23;20222;-92
2022/04/04 10:31:49;;;;;;;15.33;10.47;;;6.70;99.90;;;;;;6219585;23;20143;-92
2022/04/04 10:34:17;;;;;;;14.50;11.40;;;6.70;99.90;;;;;;6219519;23;20584;-93
2022/04/04 10:37:07;;;;;;;17.33;11.03;;;6.80;99.90;;;;;;6220018;23;20162;-92
2022/04/04 10:39:48;;;;;;;15.97;11.00;;;6.90;99.90;;;;;;6226839;23;20159;-92
2022/04/04 10:42:36;;;;;;;14.10;10.67;;;7.00;99.90;;;;;;6219347;23;20140;-91
2022/04/04 10:45:12;;;;;;;15.67;11.07;;;7.10;99.90;;;;;;6219581;23;20692;-90
2022/04/04 10:47:47;;;;;;;14.40;10.13;;;7.20;99.90;;;;;;6219817;23;20147;-90
2022/04/04 10:50:33;;;;;;;12.77;9.53;;;7.30;99.90;;;;;;6219777;23;20176;-91
2022/04/04 10:53:01;;;;;;;14.17;10.10;;;7.30;99.90;;;;;;6219430;23;20151;-91
2022/04/04 10:55:40;;;;;;;12.27;9.40;;;7.30;99.90;;;;;;6220624;23;20146;-91
2022/04/04 10:58:13;;;;;;;15.90;9.57;;;7.30;99.90;;;;;;6219105;23;20198;-92
2022/04/04 11:01:14;;;;;;;15.20;10.17;;;7.30;99.90;;;;;;6220219;23;20152;-92
2022/04/04 11:03:42;;;;;;;14.67;9.03;;;7.50;99.90;;;;;;6235233;23;20183;-92
2022/04/04 11:09:15;;;;;;;14.90;9.53;;;7.50;99.90;;;;;;6261913;23;20175;-94
2022/04/04 11:12:14;;;;;;;15.03;9.80;;;7.60;99.90;;;;;;6235349;23;20144;-92
2022/04/04 11:14:47;;;;;;;12.67;9.57;;;7.80;99.90;;;;;;6235269;23;20585;-92
2022/04/04 11:17:21;;;;;;;13.53;8.53;;;7.80;99.90;;;;;;6235601;23;20215;-91
2022/04/04 11:19:48;;;;;;;10.57;8.40;;;7.90;99.90;;;;;;6210918;23;20146;-91
2022/04/04 11:22:20;;;;;;;10.83;8.47;;;7.80;99.90;;;;;;6235817;23;20149;-92
2022/04/04 11:24:55;;;;;;;11.93;8.83;;;7.70;99.90;;;;;;6235976;23;20180;-91
2022/04/04 11:27:24;;;;;;;10.53;8.63;;;7.70;99.90;;;;;;6236606;23;20146;-93
2022/04/04 11:29:49;;;;;;;14.50;8.17;;;7.60;99.90;;;;;;6236934;23;20211;-92
2022/04/04 11:32:31;;;;;;;10.63;8.23;;;7.50;99.90;;;;;;6237529;23;20143;-91
2022/04/04 11:35:01;;;;;;;13.23;8.60;;;7.40;99.90;;;;;;6238677;23;20147;-91
2022/04/04 11:37:29;;;;;;;11.83;9.67;;;7.40;99.90;;;;;;6238453;23;20162;-92
2022/04/04 11:40:03;;;;;;;14.13;9.83;;;7.40;99.90;;;;;;6237110;23;20159;-92
2022/04/04 11:42:39;;;;;;;14.67;10.63;;;7.40;99.90;;;;;;6236826;23;20155;-92
2022/04/04 11:45:05;;;;;;;14.57;10.00;;;7.40;99.90;;;;;;6238411;23;20183;-91
2022/04/04 11:47:32;;;;;;;16.00;10.67;;;7.40;99.90;;;;;;6233322;23;20200;-90
2022/04/04 11:50:01;;;;;;;13.03;10.17;;;7.40;99.90;;;;;;6234402;23;20151;-90
2022/04/04 11:52:28;;;;;;;17.97;10.83;;;7.40;99.90;;;;;;6234217;23;20146;-89
2022/04/04 11:54:55;;;;;;;17.33;10.67;;;7.40;99.90;;;;;;6234103;23;20250;-91
2022/04/04 11:57:22;;;;;;;17.80;11.37;;;7.40;99.90;;;;;;6234050;23;20143;-90
2022/04/04 11:59:49;;;;;;;17.97;11.53;;;7.30;99.90;;;;;;6232803;23;20211;-90
2022/04/04 12:02:16;;;;;;;18.10;12.33;;;7.20;99.90;;;;;;6233784;23;20144;-91
2022/04/04 12:04:43;;;;;;;15.93;10.80;;;7.10;99.90;;;;;;6233581;23;20179;-90
2022/04/04 12:07:11;;;;;;;17.40;12.37;;;7.20;99.90;;;;;;6233772;23;20230;-90
2022/04/04 12:09:38;;;;;;;17.63;12.87;;;7.20;99.90;;;;;;6232151;23;20596;-89
2022/04/04 12:12:12;;;;;;;19.77;13.07;;;7.20;99.90;;;;;;6232770;23;20139;-90
2022/04/04 12:14:43;;;;;;;21.93;13.83;;;7.20;99.90;;;;;;6232266;23;20170;-90
2022/04/04 12:17:12;;;;;;;21.43;13.30;;;7.20;99.90;;;;;;6232325;23;20139;-90
2022/04/04 12:19:50;;;;;;;19.93;13.50;;;7.10;99.90;;;;;;6233156;23;20147;-90
2022/04/04 12:25:05;;;;;;;19.40;13.67;;;7.00;99.90;;;;;;6259648;23;20525;-90
2022/04/04 12:27:31;;;;;;;18.63;13.73;;;7.00;99.90;;;;;;6207849;23;20151;-90
2022/04/04 12:30:00;;;;;;;23.50;14.40;;;7.10;99.90;;;;;;6232472;23;20153;-92
2022/04/04 12:32:32;;;;;;;17.83;13.37;;;7.10;99.90;;;;;;6232306;23;20143;-89
2022/04/04 12:35:07;;;;;;;20.43;13.67;;;7.00;99.90;;;;;;6232488;23;20477;-90
2022/04/04 12:37:34;;;;;;;15.43;12.10;;;7.10;99.90;;;;;;6232221;23;20148;-90
2022/04/04 12:40:20;;;;;;;15.90;13.00;;;7.10;99.90;;;;;;6232326;23;20151;-90
2022/04/04 12:42:47;;;;;;;18.90;13.50;;;7.30;99.90;;;;;;6232248;23;20651;-90
2022/04/04 12:45:14;;;;;;;17.97;14.00;;;7.20;99.90;;;;;;6231895;23;20151;-90
2022/04/04 12:47:57;;;;;;;19.90;13.20;;;7.30;99.90;;;;;;6232661;23;20139;-90
2022/04/04 12:50:24;;;;;;;21.93;13.27;;;7.30;99.90;;;;;;6232546;23;20224;-90
2022/04/04 12:53:01;;;;;;;19.80;14.27;;;7.30;99.90;;;;;;6232266;23;20143;-89
2022/04/04 12:55:28;;;;;;;18.50;13.17;;;7.30;99.90;;;;;;6233005;23;20211;-90
2022/04/04 12:57:55;;;;;;;18.73;12.70;;;7.20;99.90;;;;;;6232445;23;20143;-90
2022/04/04 13:00:38;;;;;;;19.50;13.83;;;7.30;99.90;;;;;;6233372;23;20155;-91